sensor_id;sensor_type;location;lat;lon;timestamp;P1;durP1;ratioP1;P2;durP2;ratioP2
9330;SDS011;4704;50.470;12.072;2023-01-24T00:01:01;3.63;;;3.33;;
9330;SDS011;4704;50.470;12.072;2023-01-24T00:03:30;3.70;;;3.40;;
9330;SDS011;4704;50.470;12.072;2023-01-24T00:05:58;4.03;;;3.63;;
9330;SDS011;4704;50.470;12.072;2023-01-24T00:08:25;4.05;;;3.70;;
9330;SDS011;4704;50.470;12.072;2023-01-24T00:10:59;3.97;;;3.58;;
9330;SDS011;4704;50.470;12.072;2023-01-24T00:13:27;3.80;;;3.50;;
9330;SDS011;4704;50.470;12.072;2023-01-24T00:16:02;3.95;;;3.65;;
9330;SDS011;4704;50.470;12.072;2023-01-24T00:18:31;3.83;;;3.50;;
9330;SDS011;4704;50.470;12.072;2023-01-24T00:21:00;3.97;;;3.67;;
9330;SDS011;4704;50.470;12.072;2023-01-24T00:23:27;4.15;;;3.80;;
9330;SDS011;4704;50.470;12.072;2023-01-24T00:25:55;3.90;;;3.50;;
9330;SDS011;4704;50.470;12.072;2023-01-24T00:28:23;4.15;;;3.75;;
9330;SDS011;4704;50.470;12.072;2023-01-24T00:30:50;4.15;;;3.78;;
9330;SDS011;4704;50.470;12.072;2023-01-24T00:33:18;3.83;;;3.53;;
9330;SDS011;4704;50.470;12.072;2023-01-24T00:35:48;3.75;;;3.45;;
9330;SDS011;4704;50.470;12.072;2023-01-24T00:38:16;3.78;;;3.47;;
9330;SDS011;4704;50.470;12.072;2023-01-24T00:40:44;4.03;;;3.63;;
9330;SDS011;4704;50.470;12.072;2023-01-24T00:43:12;3.85;;;3.50;;
9330;SDS011;4704;50.470;12.072;2023-01-24T00:45:40;3.72;;;3.42;;
9330;SDS011;4704;50.470;12.072;2023-01-24T00:48:08;4.00;;;3.70;;
9330;SDS011;4704;50.470;12.072;2023-01-24T00:50:36;4.10;;;3.80;;
9330;SDS011;4704;50.470;12.072;2023-01-24T00:53:05;3.67;;;3.38;;
9330;SDS011;4704;50.470;12.072;2023-01-24T00:55:33;4.10;;;3.75;;
9330;SDS011;4704;50.470;12.072;2023-01-24T00:58:01;3.70;;;3.40;;
9330;SDS011;4704;50.470;12.072;2023-01-24T01:00:29;4.20;;;3.70;;
9330;SDS011;4704;50.470;12.072;2023-01-24T01:02:56;4.00;;;3.70;;
9330;SDS011;4704;50.470;12.072;2023-01-24T01:05:24;4.05;;;3.70;;
9330;SDS011;4704;50.470;12.072;2023-01-24T01:07:52;3.80;;;3.50;;
9330;SDS011;4704;50.470;12.072;2023-01-24T01:10:21;3.70;;;3.40;;
9330;SDS011;4704;50.470;12.072;2023-01-24T01:12:49;4.10;;;3.70;;
9330;SDS011;4704;50.470;12.072;2023-01-24T01:15:17;4.43;;;4.03;;
9330;SDS011;4704;50.470;12.072;2023-01-24T01:17:45;4.10;;;3.80;;
9330;SDS011;4704;50.470;12.072;2023-01-24T01:20:12;3.80;;;3.40;;
9330;SDS011;4704;50.470;12.072;2023-01-24T01:22:40;4.13;;;3.70;;
9330;SDS011;4704;50.470;12.072;2023-01-24T01:25:08;3.70;;;3.40;;
9330;SDS011;4704;50.470;12.072;2023-01-24T01:27:37;4.05;;;3.67;;
9330;SDS011;4704;50.470;12.072;2023-01-24T01:30:05;3.47;;;3.17;;
9330;SDS011;4704;50.470;12.072;2023-01-24T01:32:33;4.32;;;3.92;;
9330;SDS011;4704;50.470;12.072;2023-01-24T01:35:01;4.00;;;3.60;;
9330;SDS011;4704;50.470;12.072;2023-01-24T01:37:29;3.60;;;3.30;;
9330;SDS011;4704;50.470;12.072;2023-01-24T01:39:56;4.55;;;4.15;;
9330;SDS011;4704;50.470;12.072;2023-01-24T01:42:24;4.32;;;3.92;;
9330;SDS011;4704;50.470;12.072;2023-01-24T01:44:53;4.43;;;3.97;;
9330;SDS011;4704;50.470;12.072;2023-01-24T01:47:23;3.97;;;3.67;;
9330;SDS011;4704;50.470;12.072;2023-01-24T01:49:57;3.85;;;3.55;;
9330;SDS011;4704;50.470;12.072;2023-01-24T01:52:26;4.40;;;4.00;;
9330;SDS011;4704;50.470;12.072;2023-01-24T01:54:56;4.20;;;3.80;;
9330;SDS011;4704;50.470;12.072;2023-01-24T01:57:25;4.40;;;4.00;;
9330;SDS011;4704;50.470;12.072;2023-01-24T01:59:56;4.13;;;3.80;;
9330;SDS011;4704;50.470;12.072;2023-01-24T02:02:26;4.32;;;3.92;;
9330;SDS011;4704;50.470;12.072;2023-01-24T02:04:55;3.88;;;3.58;;
9330;SDS011;4704;50.470;12.072;2023-01-24T02:07:27;3.95;;;3.65;;
9330;SDS011;4704;50.470;12.072;2023-01-24T02:09:56;4.43;;;4.03;;
9330;SDS011;4704;50.470;12.072;2023-01-24T02:12:26;4.07;;;3.67;;
9330;SDS011;4704;50.470;12.072;2023-01-24T02:14:57;3.83;;;3.53;;
9330;SDS011;4704;50.470;12.072;2023-01-24T02:17:43;4.35;;;3.95;;
9330;SDS011;4704;50.470;12.072;2023-01-24T02:20:17;3.90;;;3.53;;
9330;SDS011;4704;50.470;12.072;2023-01-24T02:22:48;3.50;;;3.20;;
9330;SDS011;4704;50.470;12.072;2023-01-24T02:25:19;4.10;;;3.80;;
9330;SDS011;4704;50.470;12.072;2023-01-24T02:27:50;4.35;;;3.95;;
9330;SDS011;4704;50.470;12.072;2023-01-24T02:30:18;3.95;;;3.65;;
9330;SDS011;4704;50.470;12.072;2023-01-24T02:32:45;4.25;;;3.70;;
9330;SDS011;4704;50.470;12.072;2023-01-24T02:35:23;3.97;;;3.67;;
9330;SDS011;4704;50.470;12.072;2023-01-24T02:37:51;3.40;;;3.10;;
9330;SDS011;4704;50.470;12.072;2023-01-24T02:40:20;3.67;;;3.38;;
9330;SDS011;4704;50.470;12.072;2023-01-24T02:42:47;3.92;;;3.63;;
9330;SDS011;4704;50.470;12.072;2023-01-24T02:45:18;4.18;;;3.80;;
9330;SDS011;4704;50.470;12.072;2023-01-24T02:47:48;3.80;;;3.33;;
9330;SDS011;4704;50.470;12.072;2023-01-24T02:50:16;4.25;;;3.85;;
9330;SDS011;4704;50.470;12.072;2023-01-24T02:52:44;4.18;;;3.75;;
9330;SDS011;4704;50.470;12.072;2023-01-24T02:55:29;4.13;;;3.72;;
9330;SDS011;4704;50.470;12.072;2023-01-24T02:57:57;3.60;;;3.30;;
9330;SDS011;4704;50.470;12.072;2023-01-24T03:00:34;4.47;;;3.45;;
9330;SDS011;4704;50.470;12.072;2023-01-24T03:03:02;3.92;;;3.63;;
9330;SDS011;4704;50.470;12.072;2023-01-24T03:05:30;3.70;;;3.38;;
9330;SDS011;4704;50.470;12.072;2023-01-24T03:08:05;4.43;;;3.88;;
9330;SDS011;4704;50.470;12.072;2023-01-24T03:10:33;4.10;;;3.70;;
9330;SDS011;4704;50.470;12.072;2023-01-24T03:13:00;4.35;;;3.58;;
9330;SDS011;4704;50.470;12.072;2023-01-24T03:15:47;3.97;;;3.58;;
9330;SDS011;4704;50.470;12.072;2023-01-24T03:18:32;3.65;;;3.30;;
9330;SDS011;4704;50.470;12.072;2023-01-24T03:21:17;3.22;;;2.92;;
9330;SDS011;4704;50.470;12.072;2023-01-24T03:24:02;4.10;;;3.58;;
9330;SDS011;4704;50.470;12.072;2023-01-24T03:26:47;3.50;;;3.20;;
9330;SDS011;4704;50.470;12.072;2023-01-24T03:29:32;4.13;;;3.53;;
9330;SDS011;4704;50.470;12.072;2023-01-24T03:32:19;3.70;;;3.33;;
9330;SDS011;4704;50.470;12.072;2023-01-24T03:35:04;4.20;;;3.28;;
9330;SDS011;4704;50.470;12.072;2023-01-24T03:37:32;3.70;;;3.40;;
9330;SDS011;4704;50.470;12.072;2023-01-24T03:40:17;3.90;;;3.47;;
9330;SDS011;4704;50.470;12.072;2023-01-24T03:42:45;4.50;;;3.60;;
9330;SDS011;4704;50.470;12.072;2023-01-24T03:45:16;3.80;;;3.50;;
9330;SDS011;4704;50.470;12.072;2023-01-24T03:47:46;4.03;;;3.50;;
9330;SDS011;4704;50.470;12.072;2023-01-24T03:50:20;3.70;;;3.30;;
9330;SDS011;4704;50.470;12.072;2023-01-24T03:53:05;3.38;;;3.08;;
9330;SDS011;4704;50.470;12.072;2023-01-24T03:55:33;3.58;;;3.28;;
9330;SDS011;4704;50.470;12.072;2023-01-24T03:58:01;3.70;;;3.40;;
9330;SDS011;4704;50.470;12.072;2023-01-24T04:00:28;3.67;;;3.38;;
9330;SDS011;4704;50.470;12.072;2023-01-24T04:02:58;3.95;;;3.65;;
9330;SDS011;4704;50.470;12.072;2023-01-24T04:05:25;3.33;;;2.92;;
9330;SDS011;4704;50.470;12.072;2023-01-24T04:07:53;3.97;;;3.25;;
9330;SDS011;4704;50.470;12.072;2023-01-24T04:10:21;3.58;;;3.28;;
9330;SDS011;4704;50.470;12.072;2023-01-24T04:12:49;3.65;;;3.33;;
9330;SDS011;4704;50.470;12.072;2023-01-24T04:15:18;3.47;;;3.17;;
9330;SDS011;4704;50.470;12.072;2023-01-24T04:17:46;3.40;;;3.10;;
9330;SDS011;4704;50.470;12.072;2023-01-24T04:20:16;3.47;;;3.17;;
9330;SDS011;4704;50.470;12.072;2023-01-24T04:22:43;3.60;;;3.25;;
9330;SDS011;4704;50.470;12.072;2023-01-24T04:25:11;3.80;;;3.50;;
9330;SDS011;4704;50.470;12.072;2023-01-24T04:27:39;3.53;;;3.22;;
9330;SDS011;4704;50.470;12.072;2023-01-24T04:30:09;3.38;;;3.08;;
9330;SDS011;4704;50.470;12.072;2023-01-24T04:32:37;3.55;;;3.25;;
9330;SDS011;4704;50.470;12.072;2023-01-24T04:35:05;3.70;;;3.40;;
9330;SDS011;4704;50.470;12.072;2023-01-24T04:37:34;3.70;;;3.40;;
9330;SDS011;4704;50.470;12.072;2023-01-24T04:40:02;3.38;;;3.05;;
9330;SDS011;4704;50.470;12.072;2023-01-24T04:42:31;3.63;;;3.33;;
9330;SDS011;4704;50.470;12.072;2023-01-24T04:44:58;3.38;;;3.08;;
9330;SDS011;4704;50.470;12.072;2023-01-24T04:47:26;3.38;;;3.08;;
9330;SDS011;4704;50.470;12.072;2023-01-24T04:49:54;3.60;;;3.30;;
9330;SDS011;4704;50.470;12.072;2023-01-24T04:52:22;3.63;;;3.33;;
9330;SDS011;4704;50.470;12.072;2023-01-24T04:54:51;3.70;;;3.35;;
9330;SDS011;4704;50.470;12.072;2023-01-24T04:57:19;3.70;;;3.40;;
9330;SDS011;4704;50.470;12.072;2023-01-24T04:59:46;3.55;;;3.25;;
9330;SDS011;4704;50.470;12.072;2023-01-24T05:02:14;3.60;;;3.30;;
9330;SDS011;4704;50.470;12.072;2023-01-24T05:04:41;3.67;;;3.38;;
9330;SDS011;4704;50.470;12.072;2023-01-24T05:07:10;3.78;;;3.20;;
9330;SDS011;4704;50.470;12.072;2023-01-24T05:09:37;3.40;;;3.10;;
9330;SDS011;4704;50.470;12.072;2023-01-24T05:12:06;3.75;;;3.45;;
9330;SDS011;4704;50.470;12.072;2023-01-24T05:14:33;3.45;;;3.13;;
9330;SDS011;4704;50.470;12.072;2023-01-24T05:17:01;3.40;;;3.10;;
9330;SDS011;4704;50.470;12.072;2023-01-24T05:19:28;3.47;;;3.17;;
9330;SDS011;4704;50.470;12.072;2023-01-24T05:21:56;3.00;;;2.80;;
9330;SDS011;4704;50.470;12.072;2023-01-24T05:24:23;3.50;;;3.20;;
9330;SDS011;4704;50.470;12.072;2023-01-24T05:26:51;3.90;;;3.60;;
9330;SDS011;4704;50.470;12.072;2023-01-24T05:29:19;3.58;;;3.13;;
9330;SDS011;4704;50.470;12.072;2023-01-24T05:31:47;3.70;;;3.30;;
9330;SDS011;4704;50.470;12.072;2023-01-24T05:34:14;3.70;;;3.40;;
9330;SDS011;4704;50.470;12.072;2023-01-24T05:36:41;3.70;;;3.40;;
9330;SDS011;4704;50.470;12.072;2023-01-24T05:39:09;3.72;;;3.33;;
9330;SDS011;4704;50.470;12.072;2023-01-24T05:41:36;3.25;;;2.95;;
9330;SDS011;4704;50.470;12.072;2023-01-24T05:44:04;3.58;;;3.28;;
9330;SDS011;4704;50.470;12.072;2023-01-24T05:46:33;3.50;;;3.10;;
9330;SDS011;4704;50.470;12.072;2023-01-24T05:49:00;14.27;;;9.57;;
9330;SDS011;4704;50.470;12.072;2023-01-24T05:51:28;12.02;;;8.52;;
9330;SDS011;4704;50.470;12.072;2023-01-24T05:53:55;10.48;;;7.28;;
9330;SDS011;4704;50.470;12.072;2023-01-24T05:56:22;10.23;;;6.75;;
9330;SDS011;4704;50.470;12.072;2023-01-24T05:58:50;10.00;;;6.43;;
9330;SDS011;4704;50.470;12.072;2023-01-24T06:01:18;9.05;;;6.95;;
9330;SDS011;4704;50.470;12.072;2023-01-24T06:03:48;7.97;;;6.60;;
9330;SDS011;4704;50.470;12.072;2023-01-24T06:06:16;9.93;;;7.32;;
9330;SDS011;4704;50.470;12.072;2023-01-24T06:08:44;9.20;;;6.40;;
9330;SDS011;4704;50.470;12.072;2023-01-24T06:11:12;8.13;;;6.57;;
9330;SDS011;4704;50.470;12.072;2023-01-24T06:13:40;8.73;;;6.95;;
9330;SDS011;4704;50.470;12.072;2023-01-24T06:16:09;8.70;;;7.10;;
9330;SDS011;4704;50.470;12.072;2023-01-24T06:18:36;8.00;;;6.85;;
9330;SDS011;4704;50.470;12.072;2023-01-24T06:21:06;8.32;;;6.70;;
9330;SDS011;4704;50.470;12.072;2023-01-24T06:23:34;8.35;;;6.60;;
9330;SDS011;4704;50.470;12.072;2023-01-24T06:26:01;7.68;;;6.30;;
9330;SDS011;4704;50.470;12.072;2023-01-24T06:28:29;8.40;;;6.20;;
9330;SDS011;4704;50.470;12.072;2023-01-24T06:31:00;8.25;;;6.22;;
9330;SDS011;4704;50.470;12.072;2023-01-24T06:33:37;8.55;;;6.35;;
9330;SDS011;4704;50.470;12.072;2023-01-24T06:36:18;7.60;;;6.60;;
9330;SDS011;4704;50.470;12.072;2023-01-24T06:38:46;7.50;;;6.32;;
9330;SDS011;4704;50.470;12.072;2023-01-24T06:41:14;6.97;;;5.82;;
9330;SDS011;4704;50.470;12.072;2023-01-24T06:43:42;6.82;;;6.07;;
9330;SDS011;4704;50.470;12.072;2023-01-24T06:46:10;7.05;;;5.75;;
9330;SDS011;4704;50.470;12.072;2023-01-24T06:48:38;6.85;;;5.72;;
9330;SDS011;4704;50.470;12.072;2023-01-24T06:51:05;6.47;;;5.78;;
9330;SDS011;4704;50.470;12.072;2023-01-24T06:53:34;6.22;;;5.57;;
9330;SDS011;4704;50.470;12.072;2023-01-24T06:56:01;6.82;;;5.85;;
9330;SDS011;4704;50.470;12.072;2023-01-24T06:58:29;6.47;;;5.40;;
9330;SDS011;4704;50.470;12.072;2023-01-24T07:00:56;6.18;;;5.45;;
9330;SDS011;4704;50.470;12.072;2023-01-24T07:03:23;6.85;;;5.57;;
9330;SDS011;4704;50.470;12.072;2023-01-24T07:05:51;5.82;;;5.15;;
9330;SDS011;4704;50.470;12.072;2023-01-24T07:08:18;5.97;;;5.38;;
9330;SDS011;4704;50.470;12.072;2023-01-24T07:10:48;6.35;;;5.30;;
9330;SDS011;4704;50.470;12.072;2023-01-24T07:13:15;6.43;;;5.47;;
9330;SDS011;4704;50.470;12.072;2023-01-24T07:15:42;6.13;;;5.38;;
9330;SDS011;4704;50.470;12.072;2023-01-24T07:18:11;5.70;;;4.78;;
9330;SDS011;4704;50.470;12.072;2023-01-24T07:20:39;5.88;;;5.07;;
9330;SDS011;4704;50.470;12.072;2023-01-24T07:23:11;6.05;;;4.72;;
9330;SDS011;4704;50.470;12.072;2023-01-24T07:25:39;5.55;;;5.00;;
9330;SDS011;4704;50.470;12.072;2023-01-24T07:28:09;5.75;;;5.25;;
9330;SDS011;4704;50.470;12.072;2023-01-24T07:30:38;6.45;;;4.72;;
9330;SDS011;4704;50.470;12.072;2023-01-24T07:33:07;6.15;;;5.18;;
9330;SDS011;4704;50.470;12.072;2023-01-24T07:35:35;7.43;;;5.18;;
9330;SDS011;4704;50.470;12.072;2023-01-24T07:38:03;6.05;;;4.88;;
9330;SDS011;4704;50.470;12.072;2023-01-24T07:40:31;5.43;;;4.45;;
9330;SDS011;4704;50.470;12.072;2023-01-24T07:42:58;5.30;;;4.80;;
9330;SDS011;4704;50.470;12.072;2023-01-24T07:45:27;4.93;;;4.45;;
9330;SDS011;4704;50.470;12.072;2023-01-24T07:47:55;4.60;;;4.20;;
9330;SDS011;4704;50.470;12.072;2023-01-24T07:50:23;6.22;;;4.78;;
9330;SDS011;4704;50.470;12.072;2023-01-24T07:52:50;4.55;;;4.15;;
9330;SDS011;4704;50.470;12.072;2023-01-24T07:55:18;4.85;;;4.40;;
9330;SDS011;4704;50.470;12.072;2023-01-24T07:57:45;4.72;;;4.22;;
9330;SDS011;4704;50.470;12.072;2023-01-24T08:00:13;5.95;;;4.78;;
9330;SDS011;4704;50.470;12.072;2023-01-24T08:02:42;4.53;;;4.13;;
9330;SDS011;4704;50.470;12.072;2023-01-24T08:05:10;4.88;;;4.18;;
9330;SDS011;4704;50.470;12.072;2023-01-24T08:07:37;4.88;;;4.20;;
9330;SDS011;4704;50.470;12.072;2023-01-24T08:10:05;4.85;;;4.30;;
9330;SDS011;4704;50.470;12.072;2023-01-24T08:12:33;4.70;;;4.20;;
9330;SDS011;4704;50.470;12.072;2023-01-24T08:15:00;5.10;;;4.43;;
9330;SDS011;4704;50.470;12.072;2023-01-24T08:17:28;4.85;;;4.22;;
9330;SDS011;4704;50.470;12.072;2023-01-24T08:19:56;5.00;;;4.40;;
9330;SDS011;4704;50.470;12.072;2023-01-24T08:22:24;4.47;;;4.07;;
9330;SDS011;4704;50.470;12.072;2023-01-24T08:24:51;4.45;;;4.05;;
9330;SDS011;4704;50.470;12.072;2023-01-24T08:27:19;4.28;;;3.88;;
9330;SDS011;4704;50.470;12.072;2023-01-24T08:29:46;4.53;;;4.13;;
9330;SDS011;4704;50.470;12.072;2023-01-24T08:32:14;5.10;;;4.60;;
9330;SDS011;4704;50.470;12.072;2023-01-24T08:34:41;4.60;;;3.80;;
9330;SDS011;4704;50.470;12.072;2023-01-24T08:37:10;4.63;;;3.97;;
9330;SDS011;4704;50.470;12.072;2023-01-24T08:39:37;4.72;;;4.13;;
9330;SDS011;4704;50.470;12.072;2023-01-24T08:42:05;5.00;;;4.05;;
9330;SDS011;4704;50.470;12.072;2023-01-24T08:44:32;4.03;;;3.63;;
9330;SDS011;4704;50.470;12.072;2023-01-24T08:47:00;4.25;;;3.85;;
9330;SDS011;4704;50.470;12.072;2023-01-24T08:49:27;5.05;;;3.88;;
9330;SDS011;4704;50.470;12.072;2023-01-24T08:51:54;3.40;;;3.10;;
9330;SDS011;4704;50.470;12.072;2023-01-24T08:54:26;4.22;;;3.83;;
9330;SDS011;4704;50.470;12.072;2023-01-24T08:56:54;3.90;;;3.50;;
9330;SDS011;4704;50.470;12.072;2023-01-24T08:59:21;3.63;;;3.33;;
9330;SDS011;4704;50.470;12.072;2023-01-24T09:01:49;3.72;;;3.42;;
9330;SDS011;4704;50.470;12.072;2023-01-24T09:04:16;3.92;;;3.50;;
9330;SDS011;4704;50.470;12.072;2023-01-24T09:06:44;3.70;;;3.30;;
9330;SDS011;4704;50.470;12.072;2023-01-24T09:09:11;3.90;;;3.50;;
9330;SDS011;4704;50.470;12.072;2023-01-24T09:11:40;3.60;;;3.30;;
9330;SDS011;4704;50.470;12.072;2023-01-24T09:14:07;4.15;;;3.65;;
9330;SDS011;4704;50.470;12.072;2023-01-24T09:16:35;3.65;;;3.35;;
9330;SDS011;4704;50.470;12.072;2023-01-24T09:19:02;3.58;;;3.22;;
9330;SDS011;4704;50.470;12.072;2023-01-24T09:21:29;3.70;;;3.38;;
9330;SDS011;4704;50.470;12.072;2023-01-24T09:23:57;3.75;;;3.38;;
9330;SDS011;4704;50.470;12.072;2023-01-24T09:26:25;3.08;;;2.85;;
9330;SDS011;4704;50.470;12.072;2023-01-24T09:28:54;3.95;;;3.10;;
9330;SDS011;4704;50.470;12.072;2023-01-24T09:31:21;3.13;;;2.83;;
9330;SDS011;4704;50.470;12.072;2023-01-24T09:33:49;3.55;;;3.25;;
9330;SDS011;4704;50.470;12.072;2023-01-24T09:36:16;3.30;;;3.00;;
9330;SDS011;4704;50.470;12.072;2023-01-24T09:38:44;3.22;;;2.92;;
9330;SDS011;4704;50.470;12.072;2023-01-24T09:41:14;2.90;;;2.70;;
9330;SDS011;4704;50.470;12.072;2023-01-24T09:43:45;3.85;;;3.30;;
9330;SDS011;4704;50.470;12.072;2023-01-24T09:46:15;3.15;;;2.85;;
9330;SDS011;4704;50.470;12.072;2023-01-24T09:48:43;4.20;;;3.38;;
9330;SDS011;4704;50.470;12.072;2023-01-24T09:51:13;3.28;;;2.97;;
9330;SDS011;4704;50.470;12.072;2023-01-24T09:53:44;4.03;;;3.20;;
9330;SDS011;4704;50.470;12.072;2023-01-24T09:56:14;3.95;;;3.10;;
9330;SDS011;4704;50.470;12.072;2023-01-24T09:58:55;3.55;;;3.22;;
9330;SDS011;4704;50.470;12.072;2023-01-24T10:01:26;3.38;;;3.08;;
9330;SDS011;4704;50.470;12.072;2023-01-24T10:03:53;3.05;;;2.75;;
9330;SDS011;4704;50.470;12.072;2023-01-24T10:06:22;3.45;;;3.15;;
9330;SDS011;4704;50.470;12.072;2023-01-24T10:08:50;3.38;;;3.03;;
9330;SDS011;4704;50.470;12.072;2023-01-24T10:11:24;4.05;;;3.00;;
9330;SDS011;4704;50.470;12.072;2023-01-24T10:16:59;3.55;;;3.25;;
9330;SDS011;4704;50.470;12.072;2023-01-24T10:19:43;3.20;;;2.90;;
9330;SDS011;4704;50.470;12.072;2023-01-24T10:22:20;3.30;;;3.00;;
9330;SDS011;4704;50.470;12.072;2023-01-24T10:24:52;3.40;;;3.10;;
9330;SDS011;4704;50.470;12.072;2023-01-24T10:27:24;3.50;;;3.20;;
9330;SDS011;4704;50.470;12.072;2023-01-24T10:29:53;3.50;;;3.20;;
9330;SDS011;4704;50.470;12.072;2023-01-24T10:32:26;3.67;;;3.15;;
9330;SDS011;4704;50.470;12.072;2023-01-24T10:34:56;4.15;;;3.40;;
9330;SDS011;4704;50.470;12.072;2023-01-24T10:37:25;3.80;;;3.50;;
9330;SDS011;4704;50.470;12.072;2023-01-24T10:39:53;3.55;;;3.10;;
9330;SDS011;4704;50.470;12.072;2023-01-24T10:42:22;3.67;;;3.38;;
9330;SDS011;4704;50.470;12.072;2023-01-24T10:44:50;3.40;;;3.10;;
9330;SDS011;4704;50.470;12.072;2023-01-24T10:47:31;3.50;;;3.20;;
9330;SDS011;4704;50.470;12.072;2023-01-24T10:50:06;4.15;;;3.63;;
9330;SDS011;4704;50.470;12.072;2023-01-24T10:52:33;3.83;;;3.53;;
9330;SDS011;4704;50.470;12.072;2023-01-24T10:55:01;4.03;;;3.70;;
9330;SDS011;4704;50.470;12.072;2023-01-24T10:57:35;3.50;;;3.20;;
9330;SDS011;4704;50.470;12.072;2023-01-24T11:00:05;4.15;;;3.75;;
9330;SDS011;4704;50.470;12.072;2023-01-24T11:02:35;3.67;;;3.28;;
9330;SDS011;4704;50.470;12.072;2023-01-24T11:05:03;3.97;;;3.58;;
9330;SDS011;4704;50.470;12.072;2023-01-24T11:07:31;3.60;;;3.30;;
9330;SDS011;4704;50.470;12.072;2023-01-24T11:10:07;3.83;;;3.42;;
9330;SDS011;4704;50.470;12.072;2023-01-24T11:12:36;3.83;;;3.50;;
9330;SDS011;4704;50.470;12.072;2023-01-24T11:15:04;3.80;;;3.47;;
9330;SDS011;4704;50.470;12.072;2023-01-24T11:17:32;3.88;;;3.58;;
9330;SDS011;4704;50.470;12.072;2023-01-24T11:20:04;3.83;;;3.53;;
9330;SDS011;4704;50.470;12.072;2023-01-24T11:22:42;4.65;;;4.25;;
9330;SDS011;4704;50.470;12.072;2023-01-24T11:25:12;9.60;;;8.70;;
9330;SDS011;4704;50.470;12.072;2023-01-24T11:27:44;8.38;;;7.57;;
9330;SDS011;4704;50.470;12.072;2023-01-24T11:30:14;7.15;;;6.55;;
9330;SDS011;4704;50.470;12.072;2023-01-24T11:32:45;8.52;;;7.78;;
9330;SDS011;4704;50.470;12.072;2023-01-24T11:35:17;8.70;;;7.90;;
9330;SDS011;4704;50.470;12.072;2023-01-24T11:40:36;7.65;;;6.95;;
9330;SDS011;4704;50.470;12.072;2023-01-24T11:43:12;8.10;;;7.40;;
9330;SDS011;4704;50.470;12.072;2023-01-24T11:45:46;7.65;;;6.85;;
9330;SDS011;4704;50.470;12.072;2023-01-24T11:48:19;7.30;;;6.60;;
9330;SDS011;4704;50.470;12.072;2023-01-24T11:50:53;6.82;;;6.22;;
9330;SDS011;4704;50.470;12.072;2023-01-24T11:53:28;7.22;;;6.57;;
9330;SDS011;4704;50.470;12.072;2023-01-24T11:56:00;7.00;;;6.40;;
9330;SDS011;4704;50.470;12.072;2023-01-24T11:58:35;6.55;;;5.97;;
9330;SDS011;4704;50.470;12.072;2023-01-24T12:01:08;6.00;;;5.50;;
9330;SDS011;4704;50.470;12.072;2023-01-24T12:06:38;6.32;;;5.82;;
9330;SDS011;4704;50.470;12.072;2023-01-24T12:09:11;6.22;;;5.63;;
9330;SDS011;4704;50.470;12.072;2023-01-24T12:11:42;6.15;;;5.63;;
9330;SDS011;4704;50.470;12.072;2023-01-24T12:14:19;6.00;;;5.43;;
9330;SDS011;4704;50.470;12.072;2023-01-24T12:16:51;6.40;;;5.80;;
9330;SDS011;4704;50.470;12.072;2023-01-24T12:19:34;5.53;;;5.03;;
9330;SDS011;4704;50.470;12.072;2023-01-24T12:22:11;5.60;;;5.10;;
9330;SDS011;4704;50.470;12.072;2023-01-24T12:24:41;5.60;;;5.10;;
9330;SDS011;4704;50.470;12.072;2023-01-24T12:27:11;5.78;;;5.28;;
9330;SDS011;4704;50.470;12.072;2023-01-24T12:29:41;5.25;;;4.75;;
9330;SDS011;4704;50.470;12.072;2023-01-24T12:32:11;5.10;;;4.70;;
9330;SDS011;4704;50.470;12.072;2023-01-24T12:34:42;5.05;;;4.65;;
9330;SDS011;4704;50.470;12.072;2023-01-24T12:37:15;5.35;;;4.85;;
9330;SDS011;4704;50.470;12.072;2023-01-24T12:39:50;5.55;;;5.05;;
9330;SDS011;4704;50.470;12.072;2023-01-24T12:42:21;5.30;;;4.82;;
9330;SDS011;4704;50.470;12.072;2023-01-24T12:44:50;5.25;;;4.75;;
9330;SDS011;4704;50.470;12.072;2023-01-24T12:47:22;5.60;;;5.10;;
9330;SDS011;4704;50.470;12.072;2023-01-24T12:49:53;5.07;;;4.68;;
9330;SDS011;4704;50.470;12.072;2023-01-24T12:52:27;5.20;;;4.70;;
9330;SDS011;4704;50.470;12.072;2023-01-24T12:54:58;5.00;;;4.60;;
9330;SDS011;4704;50.470;12.072;2023-01-24T12:57:29;5.03;;;4.63;;
9330;SDS011;4704;50.470;12.072;2023-01-24T12:59:57;5.38;;;4.90;;
9330;SDS011;4704;50.470;12.072;2023-01-24T13:02:37;5.30;;;4.80;;
9330;SDS011;4704;50.470;12.072;2023-01-24T13:08:01;4.70;;;4.30;;
9330;SDS011;4704;50.470;12.072;2023-01-24T13:10:33;4.90;;;4.50;;
9330;SDS011;4704;50.470;12.072;2023-01-24T13:13:04;4.88;;;4.47;;
9330;SDS011;4704;50.470;12.072;2023-01-24T13:15:35;5.00;;;4.60;;
9330;SDS011;4704;50.470;12.072;2023-01-24T13:18:08;4.95;;;4.55;;
9330;SDS011;4704;50.470;12.072;2023-01-24T13:26:19;4.95;;;4.55;;
9330;SDS011;4704;50.470;12.072;2023-01-24T13:28:51;4.90;;;4.50;;
9330;SDS011;4704;50.470;12.072;2023-01-24T13:31:25;4.85;;;4.45;;
9330;SDS011;4704;50.470;12.072;2023-01-24T13:33:55;4.68;;;4.28;;
9330;SDS011;4704;50.470;12.072;2023-01-24T13:36:25;4.85;;;4.38;;
9330;SDS011;4704;50.470;12.072;2023-01-24T13:38:54;4.75;;;4.35;;
9330;SDS011;4704;50.470;12.072;2023-01-24T13:41:35;4.40;;;4.00;;
9330;SDS011;4704;50.470;12.072;2023-01-24T13:44:03;4.53;;;4.15;;
9330;SDS011;4704;50.470;12.072;2023-01-24T13:49:17;4.72;;;4.32;;
9330;SDS011;4704;50.470;12.072;2023-01-24T13:51:46;4.80;;;4.40;;
9330;SDS011;4704;50.470;12.072;2023-01-24T13:54:16;4.47;;;4.07;;
9330;SDS011;4704;50.470;12.072;2023-01-24T13:59:32;4.78;;;4.32;;
9330;SDS011;4704;50.470;12.072;2023-01-24T14:02:01;4.95;;;4.55;;
9330;SDS011;4704;50.470;12.072;2023-01-24T14:04:36;4.22;;;3.83;;
9330;SDS011;4704;50.470;12.072;2023-01-24T14:07:15;4.55;;;4.15;;
9330;SDS011;4704;50.470;12.072;2023-01-24T14:09:43;4.60;;;4.20;;
9330;SDS011;4704;50.470;12.072;2023-01-24T14:12:14;4.63;;;4.22;;
9330;SDS011;4704;50.470;12.072;2023-01-24T14:17:47;4.65;;;4.25;;
9330;SDS011;4704;50.470;12.072;2023-01-24T14:20:22;4.80;;;4.40;;
9330;SDS011;4704;50.470;12.072;2023-01-24T14:22:52;5.13;;;4.57;;
9330;SDS011;4704;50.470;12.072;2023-01-24T14:28:04;5.07;;;4.57;;
9330;SDS011;4704;50.470;12.072;2023-01-24T14:30:39;4.88;;;4.47;;
9330;SDS011;4704;50.470;12.072;2023-01-24T14:33:15;4.63;;;4.22;;
9330;SDS011;4704;50.470;12.072;2023-01-24T14:38:38;4.30;;;3.90;;
9330;SDS011;4704;50.470;12.072;2023-01-24T14:41:10;4.75;;;4.35;;
9330;SDS011;4704;50.470;12.072;2023-01-24T14:43:44;4.88;;;4.40;;
9330;SDS011;4704;50.470;12.072;2023-01-24T14:46:12;4.78;;;4.38;;
9330;SDS011;4704;50.470;12.072;2023-01-24T14:48:44;4.80;;;4.28;;
9330;SDS011;4704;50.470;12.072;2023-01-24T14:51:14;4.65;;;4.25;;
9330;SDS011;4704;50.470;12.072;2023-01-24T14:53:45;4.40;;;4.00;;
9330;SDS011;4704;50.470;12.072;2023-01-24T14:56:13;4.40;;;4.00;;
9330;SDS011;4704;50.470;12.072;2023-01-24T14:58:41;5.15;;;4.75;;
9330;SDS011;4704;50.470;12.072;2023-01-24T15:01:28;4.95;;;4.55;;
9330;SDS011;4704;50.470;12.072;2023-01-24T15:04:00;5.07;;;4.57;;
9330;SDS011;4704;50.470;12.072;2023-01-24T15:06:29;4.50;;;4.10;;
9330;SDS011;4704;50.470;12.072;2023-01-24T15:08:58;4.65;;;4.25;;
9330;SDS011;4704;50.470;12.072;2023-01-24T15:11:27;4.70;;;4.30;;
9330;SDS011;4704;50.470;12.072;2023-01-24T15:13:56;4.65;;;4.25;;
9330;SDS011;4704;50.470;12.072;2023-01-24T15:16:24;4.93;;;4.53;;
9330;SDS011;4704;50.470;12.072;2023-01-24T15:18:55;5.03;;;4.50;;
9330;SDS011;4704;50.470;12.072;2023-01-24T15:21:33;4.63;;;4.22;;
9330;SDS011;4704;50.470;12.072;2023-01-24T15:24:01;4.88;;;4.40;;
9330;SDS011;4704;50.470;12.072;2023-01-24T15:26:34;4.40;;;4.00;;
9330;SDS011;4704;50.470;12.072;2023-01-24T15:31:48;4.80;;;4.40;;
9330;SDS011;4704;50.470;12.072;2023-01-24T15:34:17;4.13;;;3.80;;
9330;SDS011;4704;50.470;12.072;2023-01-24T15:36:54;5.10;;;4.60;;
9330;SDS011;4704;50.470;12.072;2023-01-24T15:39:22;5.05;;;4.55;;
9330;SDS011;4704;50.470;12.072;2023-01-24T15:41:50;4.53;;;4.13;;
9330;SDS011;4704;50.470;12.072;2023-01-24T15:44:41;5.25;;;4.75;;
9330;SDS011;4704;50.470;12.072;2023-01-24T15:47:16;6.50;;;5.68;;
9330;SDS011;4704;50.470;12.072;2023-01-24T15:50:02;6.75;;;6.05;;
9330;SDS011;4704;50.470;12.072;2023-01-24T15:55:33;7.00;;;6.25;;